Airfield :
LOGIN :

Register | Disclaimer

   EN    FR    IT 

 










Legend :    VFR   Marginal VFR   IFR   Intensive IFR   Very Intensive IFR
Visi :
Ceiling :
>= 8 km
>= 3000ft
5 to 8 km
1000 to 3000 ft
1500m to 5 km
500 to 1000 ft
800 to 1500m
200 to 500 ft
< 800m
< 200 ft
Symbols :   Thunderstorms  Fog  Heavy snow  Heavy precipitations  Wind > 20 kt
SIGMETs :     Misc.  Thunderstorms  Icing  Turbulence  Mountain Waves  Volcanic Ashes







- Airport Elevation : 33 ft
- IATA code : MHZ


EGUN - RAF Mildenhall

CURRENT METAR :
  • 200835Z AUTO 26014KT 9999 SCT009 OVC014 13/13 A2953 RMK AO2 RAE05RAB06E07DZB07E10RAB10E23RAB24E35 SLP003 $

EXPIRED METARs :
  • 200824Z AUTO 26014KT 9999 -RA BKN009 OVC013 13/13 A2951 RMK AO2 RAE05RAB06E07DZB07E10RAB10E23RAB24 SLP996 $
  • 200811Z AUTO 26014G21KT 9999 -RA BKN008 OVC013 13/13 A2951 RMK AO2 RAE05RAB06E07DZB07E10RAB10 CIG 007V013 SLP996 $
  • 200801Z AUTO 26014KT 9999 -RA BKN009 OVC013 13/13 A2949 RMK AO2 CIG 007V013 SLP989 $
  • 200750Z AUTO 26016G19KT 9999 -RA BKN007 OVC015 13/13 A2948 RMK AO2 RAB35 CIG 007V015 SLP986 $
  • 200745Z AUTO 25015G19KT 9999 -RA BKN010 OVC015 13/13 A2948 RMK AO2 RAB35 CIG 009V015 CIG 007 RWY29 SLP986 $
  • 200735Z AUTO 25012KT 9999 -RA SCT007 OVC015 13/13 A2947 RMK AO2 RAB35 CIG 007V015 SLP983 $
  • 200731Z AUTO 26013KT 9999 SCT007 OVC015 13/13 A2947 RMK AO2 CIG 007V015 PRESRR SLP983 $
  • 200716Z AUTO 26013KT 9999 OVC007 13/13 A2945 RMK AO2 SLP976 $
  • 200701Z AUTO 23011KT 9999 OVC008 12/12 A2944 RMK AO2 CIG 007 RWY11 SLP973 $
  • 200646Z AUTO 22012KT 9999 OVC007 12/12 A2942 RMK AO2 RAE27DZB27E28RAB38E46 OVC V BKN SLP966 $
  • 200638Z AUTO 21010KT 9999 -RA BKN007 OVC013 12/12 A2942 RMK AO2 RAE27DZB27E28RAB38 BKN V OVC SLP966 $
  • 200628Z AUTO 22007KT 9999 OVC007 12/12 A2942 RMK AO2 RAE27DZB27E28 SLP966 $
  • 200611Z AUTO 17008KT 9999 -RA BKN008 12/12 A2941 RMK AO2 CIG 008V013 BKN V SCT CIG 007 RWY29 SLP962 $
  • 200601Z AUTO 16008KT 9999 RA FEW009 FEW014 12/12 A2941 RMK AO2 SLP962 $
  • 200545Z AUTO 17010KT 9999 -RA SCT025 12/12 A2941 RMK AO2 RAB35 SLP962 $

TAF AMD TAF EGUN
Valid from the 20 at 08:00 until the 21 at 10:00 UTC


200836Z 2008/2110 24010G15KT 8000 -SHRA BKN012 620809 621701 QNH2944INS
TEMPO 2008/2010 25012G20KT BKN008
BECMG 2009/2010 26015G25KT 9999 NSW BKN012 QNH2955INS
BECMG 2016/2017 25012KT 9999 BKN020 QNH2969INS
BECMG 2020/2021 18012G18KT 9999 SCT090 BKN110 QNH2963INS
BECMG 2023/2024 18012G20KT 8000 -SHRA BKN015 610809 611701 QNH2960INS
TEMPO 2108/2110 20025G35KT TX16/2014Z TN11/2018Z
No reported NOTAMs for that airfield.
2 SIGMETs reported for the London FIR (EGTT) :
 
Severe turbulence
EGTT SIGMET 03 VALID 200700/201100 EGRR
EGTT LONDON FIR SEV TURB OBS WI N5130 E00200 - N5107 E00200 - N5100 E00128 - N5040 E00128 - N5012 E00017 - N5440 W00420 - N5438 W00126 - N5139 E00207 - N5130 E00200 FL250/370 MOV E 20KT NC=
Severe turbulence
EGTT SIGMET 02 VALID 200730/201130 EGRR
EGTT LONDON FIR SEV TURB FCST S OF LINE N4937 W00800 - N5125 E00200 SFC/FL060 MOV ESE 15KT NC=



MET'MAP, your aeronautical weather chart ! - Copyright ORBIFLY December 2007 - Disclaimer

ORBIFLY MET'MAP TEAM :

Programming & Development : Alexandra Zaïnal
Concept & Development : Baudouin d'Aumeries
Co-Development & Prog : Marc-Olivier Méhu
Technical & hardware support : Manuel Goepfert

Contact : metmap@orbifly.com




SOURCES & CREDITS :

   NOAA